Time;durP1;ratioP1;P1;durP2;ratioP2;P2;SDS_P1;SDS_P2;PMS_P1;PMS_P2;Temp;Humidity;BMP_temperature;BMP_pressure;BME280_temperature;BME280_humidity;BME280_pressure;Samples;Min_cycle;Max_cycle;Signal;HPM_P1;HPM_P2
2023/12/15 00:01:32;;;;;;;1624.30;999.90;;;28.90;99.90;;;;;;5013970;28;20061;-63
2023/12/15 00:03:59;;;;;;;1608.47;999.90;;;28.90;99.90;;;;;;5013614;28;20018;-63
2023/12/15 00:06:25;;;;;;;1615.70;999.90;;;29.00;99.90;;;;;;5013764;28;20565;-64
2023/12/15 00:08:52;;;;;;;1602.90;999.90;;;28.90;99.90;;;;;;5013776;28;20021;-63
2023/12/15 00:11:19;;;;;;;1625.03;999.90;;;29.00;99.90;;;;;;5013620;28;20022;-63
2023/12/15 00:13:45;;;;;;;1622.47;999.90;;;29.00;99.90;;;;;;5013053;28;20033;-63
2023/12/15 00:16:12;;;;;;;1615.25;999.90;;;29.00;99.90;;;;;;5013761;28;20068;-63
2023/12/15 00:18:38;;;;;;;1618.00;999.90;;;29.10;99.90;;;;;;5013817;28;20030;-63
2023/12/15 00:21:05;;;;;;;1624.55;999.90;;;29.00;99.90;;;;;;5013727;28;20096;-63
2023/12/15 00:23:33;;;;;;;1630.95;999.90;;;29.10;99.90;;;;;;5013641;28;20362;-63
2023/12/15 00:26:00;;;;;;;1628.57;999.90;;;29.10;99.90;;;;;;5013415;28;20026;-63
2023/12/15 00:28:27;;;;;;;1629.63;999.90;;;29.10;99.90;;;;;;5013710;28;20105;-62
2023/12/15 00:30:53;;;;;;;1625.85;999.90;;;29.10;99.90;;;;;;5013657;28;20018;-62
2023/12/15 00:33:20;;;;;;;1605.93;999.90;;;29.10;99.90;;;;;;5013939;28;20113;-61
2023/12/15 00:35:47;;;;;;;1610.47;999.90;;;29.20;99.90;;;;;;5013341;28;20480;-61
2023/12/15 00:38:13;;;;;;;1607.22;999.90;;;29.20;99.90;;;;;;5013240;28;20038;-61
2023/12/15 00:40:40;;;;;;;1624.25;999.90;;;29.20;99.90;;;;;;5013394;28;20022;-61
2023/12/15 00:43:06;;;;;;;1603.22;999.90;;;29.10;99.90;;;;;;5013436;28;20446;-61
2023/12/15 00:45:33;;;;;;;1616.53;999.90;;;29.20;99.90;;;;;;5013300;28;20049;-61
2023/12/15 00:47:59;;;;;;;1612.95;999.90;;;29.20;99.90;;;;;;5013257;28;20030;-64
2023/12/15 00:50:28;;;;;;;1574.07;999.90;;;29.20;99.90;;;;;;5013508;28;20037;-65
2023/12/15 00:52:56;;;;;;;1595.13;999.90;;;29.40;99.90;;;;;;5013146;28;20234;-64
2023/12/15 00:55:23;;;;;;;1604.63;999.90;;;29.40;99.90;;;;;;5010388;28;20026;-64
2023/12/15 00:57:49;;;;;;;1614.03;999.90;;;29.50;99.90;;;;;;5013126;28;20037;-64
2023/12/15 01:00:16;;;;;;;1615.55;999.90;;;29.50;99.90;;;;;;5013194;28;20536;-62
2023/12/15 01:02:43;;;;;;;1591.65;999.90;;;29.50;99.90;;;;;;5010458;28;20022;-61
2023/12/15 01:05:10;;;;;;;1603.90;999.90;;;29.60;99.90;;;;;;5012912;28;20476;-63
2023/12/15 01:07:36;;;;;;;1617.68;999.90;;;29.60;99.90;;;;;;5013143;28;20389;-63
2023/12/15 01:10:03;;;;;;;1620.47;999.90;;;29.60;99.90;;;;;;5010584;28;20053;-63
2023/12/15 01:12:30;;;;;;;1608.05;999.90;;;29.70;99.90;;;;;;5012679;28;20032;-62
2023/12/15 01:14:56;;;;;;;1602.60;999.90;;;29.70;99.90;;;;;;5013244;28;20388;-63
2023/12/15 01:17:23;;;;;;;1590.95;999.90;;;29.70;99.90;;;;;;5013454;28;20022;-63
2023/12/15 01:19:49;;;;;;;1624.25;999.90;;;29.80;99.90;;;;;;5013163;28;20037;-62
2023/12/15 01:22:16;;;;;;;1610.28;999.90;;;29.80;99.90;;;;;;5012936;28;20565;-62
2023/12/15 01:24:42;;;;;;;1602.35;999.90;;;29.90;99.90;;;;;;5012889;28;20041;-62
2023/12/15 01:27:11;;;;;;;1623.72;999.90;;;29.90;99.90;;;;;;5012787;28;20026;-61
2023/12/15 01:29:37;;;;;;;1574.45;999.90;;;29.90;99.90;;;;;;5012781;28;20062;-62
2023/12/15 01:32:04;;;;;;;1575.45;999.90;;;30.00;99.90;;;;;;5012715;28;20487;-62
2023/12/15 01:34:31;;;;;;;1546.30;999.90;;;29.90;99.90;;;;;;5012823;28;20022;-62
2023/12/15 01:36:57;;;;;;;1529.07;999.90;;;29.90;99.90;;;;;;5012813;28;20033;-63
2023/12/15 01:39:24;;;;;;;1534.95;999.90;;;29.90;99.90;;;;;;5012599;28;20026;-63
2023/12/15 01:41:51;;;;;;;1558.20;999.90;;;29.90;99.90;;;;;;5012575;28;20526;-61
2023/12/15 01:44:17;;;;;;;1576.53;999.90;;;29.90;99.90;;;;;;5012830;28;20026;-61
2023/12/15 01:46:44;;;;;;;1570.68;999.90;;;29.90;99.90;;;;;;5012486;28;20041;-61
2023/12/15 01:49:10;;;;;;;1548.85;999.90;;;29.90;99.90;;;;;;5012574;28;20029;-62
2023/12/15 01:51:38;;;;;;;1564.32;999.90;;;29.90;99.90;;;;;;5012834;28;20025;-62
2023/12/15 01:54:04;;;;;;;1547.97;999.90;;;29.90;99.90;;;;;;4998874;28;20097;-61
2023/12/15 01:56:31;;;;;;;1637.13;999.90;;;30.00;99.90;;;;;;4993073;28;20077;-62
2023/12/15 01:58:57;;;;;;;1718.63;999.90;;;30.00;99.90;;;;;;4993363;28;20061;-61
2023/12/15 02:01:24;;;;;;;1586.80;999.90;;;30.00;99.90;;;;;;4993415;28;20019;-63
2023/12/15 02:03:50;;;;;;;1580.80;999.90;;;30.00;99.90;;;;;;4992900;28;20400;-63
2023/12/15 02:06:17;;;;;;;1597.00;999.90;;;30.00;99.90;;;;;;5003729;28;20027;-63
2023/12/15 02:08:44;;;;;;;1568.68;999.90;;;30.00;99.90;;;;;;5011665;28;20022;-64
2023/12/15 02:11:11;;;;;;;1585.70;999.90;;;30.00;99.90;;;;;;5011878;28;20033;-63
2023/12/15 02:13:38;;;;;;;1593.50;999.90;;;30.00;99.90;;;;;;5009860;28;20021;-64
2023/12/15 02:16:05;;;;;;;1587.82;999.90;;;29.90;99.90;;;;;;5012829;28;20037;-66
2023/12/15 02:18:31;;;;;;;1636.10;999.90;;;30.00;99.90;;;;;;5015357;28;20053;-66
2023/12/15 02:20:58;;;;;;;1650.07;999.90;;;29.90;99.90;;;;;;5015337;28;20376;-65
2023/12/15 02:23:24;;;;;;;1613.10;999.90;;;30.00;99.90;;;;;;5015032;28;20033;-65
2023/12/15 02:25:51;;;;;;;1597.47;999.90;;;30.00;99.90;;;;;;5015538;28;20029;-64
2023/12/15 02:28:17;;;;;;;1587.55;999.90;;;30.00;99.90;;;;;;5014842;28;20033;-66
2023/12/15 02:30:44;;;;;;;1643.95;999.90;;;30.20;99.90;;;;;;5014353;28;20164;-66
2023/12/15 02:33:11;;;;;;;1643.35;999.90;;;30.20;99.90;;;;;;5012663;28;20026;-66
2023/12/15 02:35:39;;;;;;;1604.10;999.90;;;30.20;99.90;;;;;;5015055;28;20056;-64
2023/12/15 02:38:08;;;;;;;1621.03;999.90;;;30.30;99.90;;;;;;5014876;28;20061;-63
2023/12/15 02:40:36;;;;;;;1586.05;999.90;;;30.30;99.90;;;;;;5013552;28;20033;-65
2023/12/15 02:43:03;;;;;;;1614.85;999.90;;;30.30;99.90;;;;;;5014775;28;20448;-66
2023/12/15 02:45:29;;;;;;;1608.47;999.90;;;30.30;99.90;;;;;;5015025;28;20042;-66
2023/12/15 02:47:56;;;;;;;1628.13;999.90;;;30.40;99.90;;;;;;5015304;28;20041;-66
2023/12/15 02:50:22;;;;;;;1602.10;999.90;;;30.40;99.90;;;;;;5015332;28;20101;-65
2023/12/15 02:52:49;;;;;;;1605.13;999.90;;;30.40;99.90;;;;;;5015008;28;20502;-67
2023/12/15 02:55:15;;;;;;;1630.10;999.90;;;30.40;99.90;;;;;;5014740;28;20065;-67
2023/12/15 02:57:42;;;;;;;1627.38;999.90;;;30.50;99.90;;;;;;5014780;28;20033;-68
2023/12/15 03:00:09;;;;;;;1626.88;999.90;;;30.50;99.90;;;;;;5014556;28;20068;-69
2023/12/15 03:02:36;;;;;;;1617.18;999.90;;;30.60;99.90;;;;;;5014482;28;20026;-65
2023/12/15 03:05:02;;;;;;;1603.18;999.90;;;30.70;99.90;;;;;;5014507;28;20018;-64
2023/12/15 03:07:29;;;;;;;1610.50;999.90;;;30.70;99.90;;;;;;5014574;28;20025;-63
2023/12/15 03:09:55;;;;;;;1624.63;999.90;;;30.70;99.90;;;;;;4997416;28;20516;-66
2023/12/15 03:12:22;;;;;;;1631.68;999.90;;;30.80;99.90;;;;;;5014170;28;20112;-66
2023/12/15 03:14:49;;;;;;;1626.60;999.90;;;30.80;99.90;;;;;;5014658;28;20033;-66
2023/12/15 03:17:16;;;;;;;1598.47;999.90;;;30.80;99.90;;;;;;5014368;28;20029;-65
2023/12/15 03:19:43;;;;;;;1615.05;999.90;;;30.80;99.90;;;;;;5014483;28;20021;-64
2023/12/15 03:22:10;;;;;;;1536.22;999.90;;;30.80;99.90;;;;;;5014308;28;20022;-63
2023/12/15 03:24:36;;;;;;;1529.45;999.90;;;30.80;99.90;;;;;;5014488;28;20018;-62
2023/12/15 03:27:03;;;;;;;1581.32;999.90;;;30.80;99.90;;;;;;5014236;28;20022;-65
2023/12/15 03:29:29;;;;;;;1564.40;999.90;;;30.80;99.90;;;;;;5004163;28;20026;-64
2023/12/15 03:31:56;;;;;;;1546.95;999.90;;;30.90;99.90;;;;;;5005117;28;20407;-64
2023/12/15 03:34:23;;;;;;;1474.60;999.90;;;30.90;99.90;;;;;;5003334;28;20068;-63
2023/12/15 03:36:49;;;;;;;1452.10;999.90;;;30.90;99.90;;;;;;5003530;28;20026;-63
2023/12/15 03:39:16;;;;;;;1490.55;999.90;;;30.80;99.90;;;;;;5005713;28;20030;-64
2023/12/15 03:41:42;;;;;;;1556.90;999.90;;;30.80;99.90;;;;;;5003592;28;20014;-63
2023/12/15 03:44:09;;;;;;;1578.15;999.90;;;30.90;99.90;;;;;;5004344;28;20022;-63
2023/12/15 03:46:35;;;;;;;1568.47;999.90;;;30.90;99.90;;;;;;5005212;28;20058;-63
2023/12/15 03:49:02;;;;;;;1493.43;999.90;;;30.90;99.90;;;;;;5003410;28;20472;-62
2023/12/15 03:51:28;;;;;;;1487.18;999.90;;;30.80;99.90;;;;;;5012839;28;20037;-65
2023/12/15 03:53:55;;;;;;;1510.78;999.90;;;30.80;99.90;;;;;;5013337;28;20113;-64
2023/12/15 03:56:25;;;;;;;1480.30;999.90;;;30.80;99.90;;;;;;5014752;28;20018;-65
2023/12/15 03:58:52;;;;;;;1455.05;999.90;;;30.80;99.90;;;;;;5015154;28;20036;-65
2023/12/15 04:01:19;;;;;;;1460.93;999.90;;;30.80;99.90;;;;;;5015068;28;20037;-65
2023/12/15 04:03:45;;;;;;;1469.65;999.90;;;30.80;99.90;;;;;;5008127;28;20030;-63
2023/12/15 04:06:12;;;;;;;1522.05;999.90;;;30.70;99.90;;;;;;5004866;28;20018;-63
2023/12/15 04:08:42;;;;;;;1579.38;999.90;;;30.80;99.90;;;;;;5003640;28;20068;-64
2023/12/15 04:11:09;;;;;;;1558.15;999.90;;;30.90;99.90;;;;;;5011518;28;20030;-63
2023/12/15 04:13:35;;;;;;;1494.13;999.90;;;30.90;99.90;;;;;;5014785;28;20103;-63
2023/12/15 04:16:04;;;;;;;1446.45;999.90;;;31.00;99.90;;;;;;5014175;28;20034;-64
2023/12/15 04:18:32;;;;;;;1428.65;999.90;;;31.00;99.90;;;;;;5014455;28;20037;-65
2023/12/15 04:20:59;;;;;;;1464.18;999.90;;;31.00;99.90;;;;;;5014289;28;20452;-65
2023/12/15 04:23:26;;;;;;;1462.10;999.90;;;31.10;99.90;;;;;;5002953;28;20030;-64
2023/12/15 04:25:53;;;;;;;1464.38;999.90;;;31.10;99.90;;;;;;5004243;28;20034;-68
2023/12/15 04:28:19;;;;;;;1442.05;999.90;;;31.10;99.90;;;;;;5005051;28;20022;-63
2023/12/15 04:30:47;;;;;;;1453.72;999.90;;;31.10;99.90;;;;;;5011379;28;20022;-64
2023/12/15 04:33:13;;;;;;;1481.28;999.90;;;31.10;99.90;;;;;;5014154;28;20484;-65
2023/12/15 04:35:40;;;;;;;1497.20;999.90;;;31.10;99.90;;;;;;5013684;28;20046;-64
2023/12/15 04:38:06;;;;;;;1528.93;999.90;;;31.20;99.90;;;;;;5010690;28;20046;-63
2023/12/15 04:40:33;;;;;;;1504.65;999.90;;;31.20;99.90;;;;;;5013844;28;20428;-63
2023/12/15 04:42:59;;;;;;;1529.15;999.90;;;31.30;99.90;;;;;;5013865;28;20018;-69
2023/12/15 04:45:26;;;;;;;1519.43;999.90;;;31.40;99.90;;;;;;5002788;28;20053;-65
2023/12/15 04:47:54;;;;;;;1505.03;999.90;;;31.30;99.90;;;;;;5013683;28;20046;-65
2023/12/15 04:50:21;;;;;;;1502.25;999.90;;;31.30;99.90;;;;;;5013527;28;20085;-64
2023/12/15 04:52:47;;;;;;;1542.93;999.90;;;31.40;99.90;;;;;;5013540;28;20499;-67
2023/12/15 04:55:14;;;;;;;1457.85;999.90;;;31.40;99.90;;;;;;5014422;28;20057;-63
2023/12/15 04:57:40;;;;;;;1476.75;999.90;;;31.50;99.90;;;;;;5013276;28;20026;-63
2023/12/15 05:00:07;;;;;;;1499.53;999.90;;;31.50;99.90;;;;;;5010881;28;20019;-63
2023/12/15 05:02:34;;;;;;;1484.70;999.90;;;31.50;99.90;;;;;;5013582;28;20022;-63
2023/12/15 05:05:00;;;;;;;1472.50;999.90;;;31.50;99.90;;;;;;5013354;28;20026;-63
2023/12/15 05:07:27;;;;;;;1426.55;999.90;;;31.50;99.90;;;;;;5010492;28;20033;-63
2023/12/15 05:09:56;;;;;;;1419.20;999.90;;;31.50;99.90;;;;;;5012970;28;20054;-66
2023/12/15 05:12:23;;;;;;;1437.03;999.90;;;31.50;99.90;;;;;;5013023;28;20018;-63
2023/12/15 05:14:49;;;;;;;1428.15;999.90;;;31.60;99.90;;;;;;5013102;28;20073;-65
2023/12/15 05:17:17;;;;;;;1454.97;999.90;;;31.60;99.90;;;;;;5013402;28;20366;-62
2023/12/15 05:19:44;;;;;;;1474.72;999.90;;;31.60;99.90;;;;;;5012969;28;20532;-62
2023/12/15 05:22:10;;;;;;;1451.45;999.90;;;31.70;99.90;;;;;;5013114;28;20536;-61
2023/12/15 05:24:38;;;;;;;1449.88;999.90;;;31.70;99.90;;;;;;5013264;28;20027;-63
2023/12/15 05:27:04;;;;;;;1444.75;999.90;;;31.60;99.90;;;;;;5012932;28;20034;-62
2023/12/15 05:29:32;;;;;;;1499.50;999.90;;;31.70;99.90;;;;;;5012943;28;20029;-62
2023/12/15 05:31:59;;;;;;;1442.50;999.90;;;31.80;99.90;;;;;;5013213;28;20022;-63
2023/12/15 05:34:25;;;;;;;1429.60;999.90;;;31.90;99.90;;;;;;5012720;28;20487;-63
2023/12/15 05:36:52;;;;;;;1425.85;999.90;;;32.00;99.90;;;;;;5012842;28;20503;-63
2023/12/15 05:39:19;;;;;;;1472.65;999.90;;;32.10;99.90;;;;;;5012613;28;20022;-62
2023/12/15 05:41:46;;;;;;;1499.53;999.90;;;32.10;99.90;;;;;;5012423;28;20026;-63
2023/12/15 05:44:12;;;;;;;1489.50;999.90;;;32.10;99.90;;;;;;5012315;28;20026;-63
2023/12/15 05:46:42;;;;;;;1514.15;999.90;;;32.20;99.90;;;;;;5012494;28;20049;-63
2023/12/15 05:49:10;;;;;;;1516.15;999.90;;;32.20;99.90;;;;;;5003210;28;20027;-62
2023/12/15 05:51:37;;;;;;;1505.90;999.90;;;32.20;99.90;;;;;;5007299;28;20101;-63
2023/12/15 05:54:04;;;;;;;1521.68;999.90;;;32.30;99.90;;;;;;5007904;28;20120;-62
2023/12/15 05:56:31;;;;;;;1526.82;999.90;;;32.40;99.90;;;;;;5005901;28;20392;-63
2023/12/15 05:58:57;;;;;;;1504.80;999.90;;;32.40;99.90;;;;;;5006436;28;20021;-63
2023/12/15 06:01:24;;;;;;;1494.35;999.90;;;32.50;99.90;;;;;;5007917;28;20040;-63
2023/12/15 06:03:50;;;;;;;1548.35;999.90;;;32.40;99.90;;;;;;5006005;28;20019;-61
2023/12/15 06:06:17;;;;;;;1504.35;999.90;;;32.40;99.90;;;;;;5006407;28;20022;-61
2023/12/15 06:08:44;;;;;;;1469.20;999.90;;;32.40;99.90;;;;;;5007552;28;20315;-61
2023/12/15 06:11:10;;;;;;;1482.40;999.90;;;32.40;99.90;;;;;;5013316;28;20084;-61
2023/12/15 06:13:39;;;;;;;1454.68;999.90;;;32.40;99.90;;;;;;5016197;28;20092;-61
2023/12/15 06:16:06;;;;;;;1442.03;999.90;;;32.40;99.90;;;;;;5015980;28;20021;-62
2023/12/15 06:18:32;;;;;;;1450.82;999.90;;;32.50;99.90;;;;;;5015913;28;20022;-61
2023/12/15 06:20:59;;;;;;;1487.93;999.90;;;32.70;99.90;;;;;;5015096;28;20018;-61
2023/12/15 06:23:25;;;;;;;1494.20;999.90;;;32.70;99.90;;;;;;5015767;28;20396;-62
2023/12/15 06:25:52;;;;;;;1520.82;999.90;;;32.70;99.90;;;;;;5015831;28;20030;-62
2023/12/15 06:28:18;;;;;;;1541.28;999.90;;;32.60;99.90;;;;;;5015824;28;20029;-63
2023/12/15 06:30:45;;;;;;;1525.03;999.90;;;32.60;99.90;;;;;;5015803;28;20026;-63
2023/12/15 06:33:12;;;;;;;1479.57;999.90;;;32.50;99.90;;;;;;5016234;28;20030;-62
2023/12/15 06:35:38;;;;;;;1494.45;999.90;;;32.50;99.90;;;;;;5016167;28;20480;-62
2023/12/15 06:38:05;;;;;;;1498.72;999.90;;;32.50;99.90;;;;;;5016228;28;20057;-63
2023/12/15 06:40:31;;;;;;;1467.72;999.90;;;32.50;99.90;;;;;;5016181;28;20014;-63
2023/12/15 06:42:58;;;;;;;1442.80;999.90;;;32.50;99.90;;;;;;5015815;28;20018;-63
2023/12/15 06:45:24;;;;;;;1443.22;999.90;;;32.50;99.90;;;;;;5015945;28;20042;-62
2023/12/15 06:47:51;;;;;;;1439.97;999.90;;;32.40;99.90;;;;;;5015935;28;20113;-62
2023/12/15 06:50:17;;;;;;;1464.43;999.90;;;32.40;99.90;;;;;;5015773;28;20022;-61
2023/12/15 06:52:44;;;;;;;1460.07;999.90;;;32.30;99.90;;;;;;5015882;28;20052;-64
2023/12/15 06:55:11;;;;;;;1526.25;999.90;;;32.30;99.90;;;;;;5015822;28;20033;-64
2023/12/15 06:57:37;;;;;;;1562.53;999.90;;;32.40;99.90;;;;;;5015197;28;20381;-63
2023/12/15 07:00:06;;;;;;;1608.88;999.90;;;32.30;99.90;;;;;;5013498;28;20021;-63
2023/12/15 07:02:33;;;;;;;1602.40;999.90;;;32.30;99.90;;;;;;5014759;28;20072;-63
2023/12/15 07:04:59;;;;;;;1551.75;999.90;;;32.40;99.90;;;;;;5015649;28;20077;-63
2023/12/15 07:07:26;;;;;;;1540.93;999.90;;;32.40;99.90;;;;;;5015386;28;20433;-63
2023/12/15 07:09:52;;;;;;;1582.72;999.90;;;32.30;99.90;;;;;;5015403;28;20037;-64
2023/12/15 07:12:19;;;;;;;1605.10;999.90;;;32.30;99.90;;;;;;5015343;28;20022;-62
2023/12/15 07:14:45;;;;;;;1605.88;999.90;;;32.30;99.90;;;;;;5015513;28;20585;-63
2023/12/15 07:17:12;;;;;;;1611.57;999.90;;;32.30;99.90;;;;;;5015068;28;20037;-62
2023/12/15 07:19:38;;;;;;;1613.68;999.90;;;32.40;99.90;;;;;;5015265;28;20097;-63
2023/12/15 07:22:05;;;;;;;1611.65;999.90;;;32.40;99.90;;;;;;5015990;28;20061;-63
2023/12/15 07:24:31;;;;;;;1619.97;999.90;;;32.40;99.90;;;;;;5015764;28;20030;-62
2023/12/15 07:26:58;;;;;;;1617.90;999.90;;;32.40;99.90;;;;;;5015286;28;20038;-62
2023/12/15 07:29:24;;;;;;;1621.00;999.90;;;32.40;99.90;;;;;;5015432;28;20112;-62
2023/12/15 07:31:51;;;;;;;1624.38;999.90;;;32.40;99.90;;;;;;5015506;28;20037;-62
2023/12/15 07:34:18;;;;;;;1621.38;999.90;;;32.40;99.90;;;;;;5015056;28;20022;-62
2023/12/15 07:36:44;;;;;;;1602.20;999.90;;;32.40;99.90;;;;;;5017655;28;20045;-63
2023/12/15 07:39:11;;;;;;;1616.88;999.90;;;32.40;99.90;;;;;;5015638;28;20022;-62
2023/12/15 07:41:39;;;;;;;1619.03;999.90;;;32.40;99.90;;;;;;5014990;28;20026;-61
2023/12/15 07:44:06;;;;;;;1608.85;999.90;;;32.40;99.90;;;;;;5015088;28;20133;-62
2023/12/15 07:46:33;;;;;;;1619.13;999.90;;;32.50;99.90;;;;;;5014803;28;20045;-62
2023/12/15 07:49:00;;;;;;;1626.82;999.90;;;32.50;99.90;;;;;;5067379;23;20143;-62
2023/12/15 07:51:27;;;;;;;1609.53;999.90;;;32.40;99.90;;;;;;5074391;28;20024;-62
2023/12/15 07:53:53;;;;;;;1619.80;999.90;;;32.50;99.90;;;;;;5074424;28;20028;-62
2023/12/15 07:56:24;;;;;;;1621.90;999.90;;;32.50;99.90;;;;;;5074752;28;20050;-62
2023/12/15 07:58:52;;;;;;;1618.43;999.90;;;32.50;99.90;;;;;;5074423;28;20055;-63
2023/12/15 08:01:19;;;;;;;1620.47;999.90;;;32.50;99.90;;;;;;5074316;28;20029;-61
2023/12/15 08:03:47;;;;;;;1628.00;999.90;;;32.60;99.90;;;;;;5074323;28;20156;-61
2023/12/15 08:06:15;;;;;;;1624.78;999.90;;;32.70;99.90;;;;;;5074283;28;20034;-63
2023/12/15 08:08:42;;;;;;;1624.35;999.90;;;32.60;99.90;;;;;;5074296;28;20029;-63
2023/12/15 08:11:10;;;;;;;1621.80;999.90;;;32.50;99.90;;;;;;5073858;28;20050;-63
2023/12/15 08:13:37;;;;;;;1613.88;999.90;;;32.50;99.90;;;;;;5073468;28;20052;-63
2023/12/15 08:16:04;;;;;;;1632.35;999.90;;;32.60;99.90;;;;;;5073986;28;20029;-63
2023/12/15 08:18:31;;;;;;;1632.05;999.90;;;32.60;99.90;;;;;;5093061;28;20027;-63
2023/12/15 08:21:00;;;;;;;1639.00;999.90;;;32.50;99.90;;;;;;5082835;28;20509;-61
2023/12/15 08:23:27;;;;;;;1646.00;999.90;;;32.50;99.90;;;;;;5074143;28;20511;-63
2023/12/15 08:25:54;;;;;;;1645.10;999.90;;;32.50;99.90;;;;;;5073380;28;20040;-62
2023/12/15 08:28:21;;;;;;;1642.03;999.90;;;32.60;99.90;;;;;;5070725;28;20040;-63
2023/12/15 08:30:48;;;;;;;1618.85;999.90;;;32.60;99.90;;;;;;5073796;28;20031;-63
2023/12/15 08:33:15;;;;;;;1605.88;999.90;;;32.60;99.90;;;;;;5073792;28;20034;-63
2023/12/15 08:35:42;;;;;;;1648.93;999.90;;;32.60;99.90;;;;;;5073674;28;20436;-63
2023/12/15 08:38:09;;;;;;;1623.80;999.90;;;32.60;99.90;;;;;;5073865;28;20032;-64
2023/12/15 08:40:36;;;;;;;1609.45;999.90;;;32.60;99.90;;;;;;5073790;28;20027;-63
2023/12/15 08:43:03;;;;;;;1437.50;999.90;;;32.60;99.90;;;;;;5074124;28;20395;-61
2023/12/15 08:45:30;;;;;;;1547.22;999.90;;;32.60;99.90;;;;;;5074237;28;20066;-63
2023/12/15 08:47:56;;;;;;;1314.70;999.90;;;32.60;99.90;;;;;;5074137;28;20395;-63
2023/12/15 08:50:24;;;;;;;1354.70;999.90;;;32.70;99.90;;;;;;5073854;28;20033;-62
2023/12/15 08:52:50;;;;;;;1343.18;999.90;;;32.60;99.90;;;;;;5073578;28;20028;-63
2023/12/15 08:55:16;;;;;;;1389.95;999.90;;;32.60;99.90;;;;;;5072047;28;20056;-63
2023/12/15 08:57:43;;;;;;;1625.65;999.90;;;32.60;99.90;;;;;;5053573;28;20527;-63
2023/12/15 09:00:10;;;;;;;1634.78;999.90;;;32.60;99.90;;;;;;5053617;28;20037;-62
2023/12/15 09:02:36;;;;;;;1628.05;999.90;;;32.50;99.90;;;;;;5053492;28;20024;-62
2023/12/15 09:05:03;;;;;;;1609.97;999.90;;;32.50;99.90;;;;;;5053459;28;20044;-65
2023/12/15 09:07:30;;;;;;;1641.63;999.90;;;32.60;99.90;;;;;;5053347;28;20053;-67
2023/12/15 09:09:56;;;;;;;1391.20;999.90;;;32.60;99.90;;;;;;5053575;28;20036;-65
2023/12/15 09:12:23;;;;;;;1497.50;999.90;;;32.60;99.90;;;;;;5053050;28;20033;-63
2023/12/15 09:14:50;;;;;;;1469.28;999.90;;;32.60;99.90;;;;;;5087587;28;20118;-64
2023/12/15 09:17:16;;;;;;;1449.75;999.90;;;32.60;99.90;;;;;;5093506;28;20366;-64
2023/12/15 09:19:43;;;;;;;1528.22;999.90;;;32.60;99.90;;;;;;5093121;28;20031;-67
2023/12/15 09:22:09;;;;;;;1545.35;999.90;;;32.60;99.90;;;;;;5093251;28;20095;-63
2023/12/15 09:24:36;;;;;;;1640.55;999.90;;;32.60;99.90;;;;;;5095160;28;20477;-64
2023/12/15 09:27:03;;;;;;;1590.32;999.90;;;32.60;99.90;;;;;;5097197;28;20055;-65
2023/12/15 09:29:32;;;;;;;1427.53;999.90;;;32.50;99.90;;;;;;5097260;28;20533;-65
2023/12/15 09:31:59;;;;;;;1395.55;999.90;;;32.50;99.90;;;;;;5097262;28;20043;-65
2023/12/15 09:34:25;;;;;;;1422.60;999.90;;;32.40;99.90;;;;;;5097541;28;20066;-65
2023/12/15 09:36:52;;;;;;;1403.63;999.90;;;32.40;99.90;;;;;;5097062;28;20032;-64
2023/12/15 09:39:18;;;;;;;1435.53;999.90;;;32.40;99.90;;;;;;5097290;28;20023;-65
2023/12/15 09:41:45;;;;;;;1407.03;999.90;;;32.40;99.90;;;;;;5096917;28;20028;-65
2023/12/15 09:44:11;;;;;;;1276.32;999.90;;;32.40;99.90;;;;;;5097244;28;20016;-64
2023/12/15 09:46:38;;;;;;;1398.85;999.90;;;32.50;99.90;;;;;;5096963;28;20531;-64
2023/12/15 09:49:06;;;;;;;1373.18;999.90;;;32.50;99.90;;;;;;5096613;28;20091;-64
2023/12/15 09:51:36;;;;;;;1401.70;999.90;;;32.50;99.90;;;;;;5097032;28;20031;-64
2023/12/15 09:54:03;;;;;;;1267.70;999.90;;;32.50;99.90;;;;;;5085957;28;20040;-62
2023/12/15 09:56:29;;;;;;;1145.60;999.90;;;32.40;99.90;;;;;;5076378;28;20471;-62
2023/12/15 09:58:56;;;;;;;1112.25;999.00;;;32.40;99.90;;;;;;5076746;28;20051;-63
2023/12/15 10:01:22;;;;;;;1092.88;981.42;;;32.50;99.90;;;;;;5076476;28;20025;-63
2023/12/15 10:03:49;;;;;;;1096.90;984.42;;;32.40;99.90;;;;;;5076337;28;20037;-66
2023/12/15 10:06:15;;;;;;;997.80;896.75;;;32.40;99.90;;;;;;5076476;28;20024;-65
2023/12/15 10:08:44;;;;;;;1321.90;936.33;;;32.40;99.90;;;;;;5076319;28;20399;-65
2023/12/15 10:11:11;;;;;;;1066.88;841.42;;;32.40;99.90;;;;;;5076329;28;20474;-63
2023/12/15 10:13:41;;;;;;;1097.60;871.92;;;32.40;99.90;;;;;;5066495;28;20029;-66
2023/12/15 10:16:09;;;;;;;990.53;825.13;;;32.30;99.90;;;;;;5066017;28;20025;-61
2023/12/15 10:18:38;;;;;;;1145.10;927.08;;;32.30;99.90;;;;;;5064275;28;20112;-62
2023/12/15 10:21:05;;;;;;;1033.72;921.38;;;32.30;99.90;;;;;;5065386;28;20024;-62
2023/12/15 10:23:33;;;;;;;1046.63;939.20;;;32.30;99.90;;;;;;5066606;28;20016;-62
2023/12/15 10:26:07;;;;;;;853.63;768.38;;;32.40;99.90;;;;;;5065379;28;20484;-67
2023/12/15 10:28:38;;;;;;;915.92;824.05;;;32.40;99.90;;;;;;5064707;28;20013;-63
2023/12/15 10:31:07;;;;;;;917.50;826.10;;;32.40;99.90;;;;;;5065042;28;20033;-62
2023/12/15 10:33:35;;;;;;;1206.95;999.90;;;32.40;99.90;;;;;;5064466;28;20483;-63
2023/12/15 10:36:02;;;;;;;1065.38;953.17;;;32.40;99.90;;;;;;5064341;28;20032;-62
2023/12/15 10:38:30;;;;;;;1205.25;999.90;;;32.30;99.90;;;;;;5066607;28;20100;-63
2023/12/15 10:40:58;;;;;;;1224.65;999.90;;;32.20;99.90;;;;;;5067329;28;20043;-66
2023/12/15 10:43:27;;;;;;;1263.35;999.90;;;32.20;99.90;;;;;;5064584;28;20017;-66
2023/12/15 10:45:54;;;;;;;1202.63;999.90;;;32.20;99.90;;;;;;5066083;28;20016;-65
2023/12/15 10:48:21;;;;;;;1046.18;939.33;;;32.20;99.90;;;;;;5065175;28;20041;-64
2023/12/15 10:50:48;;;;;;;1113.63;998.28;;;32.20;99.90;;;;;;5064303;28;20020;-64
2023/12/15 10:53:16;;;;;;;963.83;863.97;;;32.10;99.90;;;;;;5064917;28;20017;-63
2023/12/15 10:55:45;;;;;;;1024.75;920.75;;;32.10;99.90;;;;;;5064786;28;20475;-64
2023/12/15 10:58:13;;;;;;;1031.43;925.65;;;32.00;99.90;;;;;;5065792;28;20029;-63
2023/12/15 11:00:40;;;;;;;1105.93;990.83;;;31.90;99.90;;;;;;5058072;28;20148;-64
2023/12/15 11:03:10;;;;;;;945.63;849.83;;;31.90;99.90;;;;;;5058634;28;20062;-63
2023/12/15 11:05:40;;;;;;;816.38;735.08;;;31.90;99.90;;;;;;5070179;28;20021;-64
2023/12/15 11:08:07;;;;;;;845.75;760.35;;;31.90;99.90;;;;;;5070104;28;20489;-67
2023/12/15 11:10:36;;;;;;;861.03;774.30;;;31.90;99.90;;;;;;5069658;28;20025;-63
2023/12/15 11:13:02;;;;;;;884.92;796.63;;;31.80;99.90;;;;;;5070288;28;20016;-63
2023/12/15 11:15:30;;;;;;;753.95;677.90;;;31.70;99.90;;;;;;5069871;28;20060;-63
2023/12/15 11:17:59;;;;;;;747.63;671.40;;;31.60;99.90;;;;;;5069716;28;20020;-62
2023/12/15 11:20:26;;;;;;;759.05;681.92;;;31.60;99.90;;;;;;5070039;28;20463;-65
2023/12/15 11:22:57;;;;;;;769.45;692.28;;;31.70;99.90;;;;;;5069160;28;20471;-63
2023/12/15 11:25:31;;;;;;;763.83;686.70;;;31.60;99.90;;;;;;5063850;28;20106;-63
2023/12/15 11:28:03;;;;;;;773.63;695.08;;;31.60;99.90;;;;;;5064570;28;20245;-64
2023/12/15 11:30:34;;;;;;;759.00;682.47;;;31.60;99.90;;;;;;5063929;28;20114;-63
2023/12/15 11:33:01;;;;;;;750.70;674.30;;;31.50;99.90;;;;;;5065015;28;20457;-64
2023/12/15 11:35:31;;;;;;;733.90;658.75;;;31.50;99.90;;;;;;5065457;28;20029;-64
2023/12/15 11:37:58;;;;;;;727.88;654.80;;;31.50;99.90;;;;;;5064871;28;20175;-65
2023/12/15 11:40:29;;;;;;;750.80;673.22;;;31.50;99.90;;;;;;5064895;28;20108;-62
2023/12/15 11:42:57;;;;;;;730.40;656.37;;;31.50;99.90;;;;;;5063919;28;20060;-63
2023/12/15 11:45:27;;;;;;;713.80;640.70;;;31.40;99.90;;;;;;5064678;28;20100;-63
2023/12/15 11:47:54;;;;;;;648.90;580.78;;;31.30;99.90;;;;;;5065886;28;20378;-63
2023/12/15 11:50:21;;;;;;;624.22;559.47;;;31.40;99.90;;;;;;5064700;28;20029;-62
2023/12/15 11:52:49;;;;;;;627.58;561.60;;;31.30;99.90;;;;;;5068676;28;20025;-61
2023/12/15 11:55:17;;;;;;;635.40;569.63;;;31.40;99.90;;;;;;5063363;28;20021;-63
2023/12/15 11:57:44;;;;;;;664.33;595.60;;;31.40;99.90;;;;;;5063796;28;20060;-61
2023/12/15 12:00:13;;;;;;;658.08;589.03;;;31.40;99.90;;;;;;5065486;28;20023;-64